Westminster, CO

4:58 PM MDT on May 06, 2015 (GMT -0600)
Denver | | Change Station
CLOSE
Current Station
Airport
Location: Denver,
Elevation: 5430 ft
Nearby Weather Stations

Elev 5430 ft 39.85 °N, 104.66 °W | Updated 1 hour ago

Overcast
Overcast
64 °F
Feels Like 64 °F
N
0
Wind Variable Wind from North

Today
High -- | Low -- °F
--% Chance of Precip.
Yesterday
High -- | Low -- °F
Precip. -- in
5:54 AM 7:59 PM
Waning Gibbous, 92% visible
Pressure 29.53 in
Visibility 10.0 miles
Clouds Few 3500 ft
Scattered Clouds 5500 ft
Mostly Cloudy 11000 ft
Mostly Cloudy 22000 ft
Dew Point 46 °F
Humidity 52%
Rainfall 0.10 in
Snow Depth Not available.
UV 4 out of 12
Pollen 4.50 out of 12
Air Quality Not available.
Flu Activity Sporadic
METAR KDEN 062153Z 00000KT 10SM FEW035 SCT055 BKN110 BKN220 18/08 A2969 RMK AO2 SLP000 SHRA DSNT S T01780078

More Conditions Fewer Conditions

Pressure 29.53 in
Visibility 10.0 miles
Clouds Few 3500 ft
Scattered Clouds 5500 ft
Mostly Cloudy 11000 ft
Mostly Cloudy 22000 ft
Dew Point 46 °F
Humidity 52%
Rainfall 0.10 in
Snow Depth Not available.
UV 4 out of 12
Pollen 4.50 out of 12
Air Quality Not available.
Flu Activity Sporadic
METAR KDEN 062153Z 00000KT 10SM FEW035 SCT055 BKN110 BKN220 18/08 A2969 RMK AO2 SLP000 SHRA DSNT S T01780078

More Conditions Fewer Conditions

Nowcast | as of 3:51 PM MDT on May 6, 2015

Scattered showers and a few thunderstorms will continue over the foothills and move east across the urban corridor and adjacent plains through late afternoon. Some of the showers will produce brief rain and wind gusts to 30 mph. Rainfall rates will be up to a quarter inch in less than an hour with the heavier showers.

×

10-Day Weather Forecast

Almanac

Astronomy

May. 06, 2015 Rise Set
Actual Time
Civil Twilight
Nautical Twilight
Astronomical Twilight
Moon
Length of Visible Light
Length of Day
Tomorrow will be .
, % of the Moon is Illuminated

Today's Extremes

State Highs State Lows

Community

WunderPhotos

Upload Photos

1,819,034 photos uploaded!

WunderBlogs® & News

Nearby

Air Quality

  Air Quality AQ Index Pollutant
Not available.

Snow Depth

Station Depth Elevation

Earthquake Activity

City Distance Mag. Time & Date
Minimum magnitude displayed is 2.5.

Coastal Water Temperatures

Place Temperature

Stations

Nearby Weather Stations

Station Location Temp. Windchill Dew Point Humidity Wind Precip. Elev Updated Type